Time;durP1;ratioP1;P1;durP2;ratioP2;P2;SDS_P1;SDS_P2;PMS_P1;PMS_P2;Temp;Humidity;BMP_temperature;BMP_pressure;BME280_temperature;BME280_humidity;BME280_pressure;Samples;Min_cycle;Max_cycle;Signal;HPM_P1;HPM_P2
2023/08/23 00:02:07;;;;;;;;;;;;;;;28.81;37.46;98890.75;5011601;28;19914;-77
2023/08/23 00:04:34;;;;;;;;;;;;;;;28.76;37.50;98896.00;5010574;28;19921;-78
2023/08/23 00:07:00;;;;;;;;;;;;;;;28.74;37.54;98893.56;5011515;28;19920;-78
2023/08/23 00:09:25;;;;;;;;;;;;;;;28.69;37.41;98894.25;4995354;28;19914;-78
2023/08/23 00:11:50;;;;;;;;;;;;;;;28.68;37.58;98891.78;4995398;28;20004;-78
2023/08/23 00:14:15;;;;;;;;;;;;;;;28.65;37.57;98898.44;4995220;28;19940;-77
2023/08/23 00:16:41;;;;;;;;;;;;;;;28.62;37.57;98895.41;5010062;28;19913;-78
2023/08/23 00:19:06;;;;;;;;;;;;;;;28.63;37.71;98891.66;5010146;28;19914;-78
2023/08/23 00:21:31;;;;;;;;;;;;;;;28.65;37.52;98892.25;5010483;28;19918;-78
2023/08/23 00:23:57;;;;;;;;;;;;;;;28.61;37.85;98891.91;5010763;28;20452;-78
2023/08/23 00:26:22;;;;;;;;;;;;;;;28.55;38.00;98887.41;5010272;28;19937;-78
2023/08/23 00:28:47;;;;;;;;;;;;;;;28.54;37.76;98896.50;5009927;28;19973;-78
2023/08/23 00:31:13;;;;;;;;;;;;;;;28.49;37.85;98888.34;5009875;28;19914;-78
2023/08/23 00:33:38;;;;;;;;;;;;;;;28.51;37.98;98892.44;4994323;28;19913;-78
2023/08/23 00:36:03;;;;;;;;;;;;;;;28.51;38.08;98891.59;5009534;28;20377;-78
2023/08/23 00:38:29;;;;;;;;;;;;;;;28.48;38.07;98892.06;5010159;28;19920;-78
2023/08/23 00:40:54;;;;;;;;;;;;;;;28.50;37.87;98889.97;5009582;28;19914;-78
2023/08/23 00:43:19;;;;;;;;;;;;;;;28.50;37.98;98893.47;5009812;28;19913;-78
2023/08/23 00:45:44;;;;;;;;;;;;;;;28.53;37.84;98894.91;4994492;28;19914;-78
2023/08/23 00:48:11;;;;;;;;;;;;;;;28.57;37.87;98893.38;5009732;28;20016;-78
2023/08/23 00:50:36;;;;;;;;;;;;;;;28.58;37.73;98889.69;5009708;28;20361;-78
2023/08/23 00:53:01;;;;;;;;;;;;;;;28.56;38.14;98885.53;5009534;28;19914;-78
2023/08/23 00:55:27;;;;;;;;;;;;;;;28.58;37.92;98886.19;5009294;28;20301;-78
2023/08/23 00:57:52;;;;;;;;;;;;;;;28.56;38.15;98889.06;5009041;28;19918;-78
2023/08/23 01:00:17;;;;;;;;;;;;;;;28.60;38.05;98895.63;5009286;28;19913;-78
2023/08/23 01:02:42;;;;;;;;;;;;;;;28.60;37.92;98895.63;5008647;28;19914;-78
2023/08/23 01:05:08;;;;;;;;;;;;;;;28.61;38.13;98897.28;5008971;28;19953;-78
2023/08/23 01:07:45;;;;;;;;;;;;;;;28.64;37.90;98896.81;5008873;28;19915;-79
2023/08/23 01:10:17;;;;;;;;;;;;;;;28.62;37.97;98898.06;4993894;28;19917;-78
2023/08/23 01:12:47;;;;;;;;;;;;;;;28.60;38.24;98900.19;5008788;28;20024;-78
2023/08/23 01:15:13;;;;;;;;;;;;;;;28.62;38.29;98896.22;5009144;28;19953;-78
2023/08/23 01:17:41;;;;;;;;;;;;;;;28.63;37.94;98891.66;4993755;28;20363;-78
2023/08/23 01:20:08;;;;;;;;;;;;;;;28.65;38.08;98895.75;5008769;28;19914;-78
2023/08/23 01:22:33;;;;;;;;;;;;;;;28.62;37.97;98895.41;4993878;28;19909;-78
2023/08/23 01:24:59;;;;;;;;;;;;;;;28.63;38.22;98895.16;5009029;28;19914;-78
2023/08/23 01:27:24;;;;;;;;;;;;;;;28.64;37.96;98896.81;5008960;28;20060;-78
2023/08/23 01:29:49;;;;;;;;;;;;;;;28.68;37.83;98892.59;5009269;28;19913;-78
2023/08/23 01:32:27;;;;;;;;;;;;;;;28.63;38.07;98889.78;5008499;28;19917;-77
2023/08/23 01:34:55;;;;;;;;;;;;;;;28.66;38.23;98894.69;5008576;28;19925;-77
2023/08/23 01:37:20;;;;;;;;;;;;;;;28.65;38.18;98892.25;5008590;28;19956;-78
2023/08/23 01:39:45;;;;;;;;;;;;;;;28.65;38.11;98889.56;5008796;28;20012;-78
2023/08/23 01:42:11;;;;;;;;;;;;;;;28.66;38.19;98891.22;5008368;28;20016;-78
2023/08/23 01:44:36;;;;;;;;;;;;;;;28.62;38.29;98884.66;4993147;28;20270;-77
2023/08/23 01:47:01;;;;;;;;;;;;;;;28.61;38.31;98883.84;5008859;28;19914;-77
2023/08/23 01:49:27;;;;;;;;;;;;;;;28.59;38.31;98877.91;4993485;28;19920;-78
2023/08/23 01:51:52;;;;;;;;;;;;;;;28.54;38.54;98877.72;5008707;28;19913;-77
2023/08/23 01:54:17;;;;;;;;;;;;;;;28.51;38.46;98876.34;5008362;28;20012;-78
2023/08/23 01:56:42;;;;;;;;;;;;;;;28.50;38.44;98871.19;4993244;28;19920;-77
2023/08/23 01:59:08;;;;;;;;;;;;;;;28.44;38.75;98870.22;4993215;28;19914;-76
2023/08/23 02:01:33;;;;;;;;;;;;;;;28.36;38.92;98869.75;5008641;28;20347;-76
2023/08/23 02:03:58;;;;;;;;;;;;;;;28.33;38.95;98865.66;4993687;28;19920;-75
2023/08/23 02:06:24;;;;;;;;;;;;;;;28.34;38.94;98870.00;5008398;28;20344;-77
2023/08/23 02:08:49;;;;;;;;;;;;;;;28.34;38.96;98867.31;5008585;28;20000;-77
2023/08/23 02:11:15;;;;;;;;;;;;;;;28.33;38.71;98865.66;4993355;28;20302;-77
2023/08/23 02:13:40;;;;;;;;;;;;;;;28.39;38.76;98862.06;5009685;28;19926;-77
2023/08/23 02:16:05;;;;;;;;;;;;;;;28.34;38.77;98859.25;5014542;28;19920;-77
2023/08/23 02:18:31;;;;;;;;;;;;;;;28.34;38.71;98864.63;5015295;28;20416;-77
2023/08/23 02:20:57;;;;;;;;;;;;;;;28.32;39.00;98861.31;4999360;28;19921;-77
2023/08/23 02:23:22;;;;;;;;;;;;;;;28.28;38.84;98862.84;5014801;28;19913;-77
2023/08/23 02:25:47;;;;;;;;;;;;;;;28.27;38.90;98861.22;4999377;28;19917;-80
2023/08/23 02:28:12;;;;;;;;;;;;;;;28.27;38.86;98864.69;5014425;28;20408;-77
2023/08/23 02:30:38;;;;;;;;;;;;;;;28.26;38.82;98864.94;5014585;28;20016;-78
2023/08/23 02:33:03;;;;;;;;;;;;;;;28.24;38.88;98867.84;5014559;28;19924;-78
2023/08/23 02:35:28;;;;;;;;;;;;;;;28.27;38.94;98861.22;4999447;28;19949;-77
2023/08/23 02:37:54;;;;;;;;;;;;;;;28.29;38.83;98859.09;4999404;28;20297;-77
2023/08/23 02:40:20;;;;;;;;;;;;;;;28.29;38.69;98862.63;4999436;28;20419;-77
2023/08/23 02:42:45;;;;;;;;;;;;;;;28.26;38.94;98868.44;4998192;28;19914;-77
2023/08/23 02:45:10;;;;;;;;;;;;;;;28.25;38.78;98864.13;4997935;28;19918;-77
2023/08/23 02:47:36;;;;;;;;;;;;;;;28.25;38.85;98858.75;4999296;28;19957;-77
2023/08/23 02:50:01;;;;;;;;;;;;;;;28.19;38.72;98859.66;4999285;28;19913;-77
2023/08/23 02:52:26;;;;;;;;;;;;;;;28.22;38.73;98855.72;4997564;28;19918;-78
2023/08/23 02:54:51;;;;;;;;;;;;;;;28.22;38.74;98856.53;4999176;28;20293;-74
2023/08/23 02:57:17;;;;;;;;;;;;;;;28.33;39.38;98863.78;4997318;28;19925;-74
2023/08/23 02:59:42;;;;;;;;;;;;;;;28.41;39.14;98856.47;4997893;28;19949;-72
2023/08/23 03:02:07;;;;;;;;;;;;;;;28.49;39.02;98861.50;4998805;28;20331;-78
2023/08/23 03:04:32;;;;;;;;;;;;;;;28.50;38.89;98853.19;5015127;28;19920;-72
2023/08/23 03:06:58;;;;;;;;;;;;;;;28.58;38.83;98859.34;4998973;28;20404;-72
2023/08/23 03:09:23;;;;;;;;;;;;;;;28.62;38.67;98861.31;4998132;28;19913;-71
2023/08/23 03:11:48;;;;;;;;;;;;;;;28.64;39.05;98859.22;5013855;28;19980;-73
2023/08/23 03:14:14;;;;;;;;;;;;;;;28.60;39.23;98855.34;4997302;28;20412;-75
2023/08/23 03:16:39;;;;;;;;;;;;;;;28.61;39.32;98854.31;4998799;28;19953;-72
2023/08/23 03:19:04;;;;;;;;;;;;;;;28.66;38.99;98857.09;5013934;28;20000;-72
2023/08/23 03:21:30;;;;;;;;;;;;;;;28.70;38.68;98862.81;5014391;28;20016;-71
2023/08/23 03:23:55;;;;;;;;;;;;;;;28.67;38.41;98856.06;5014183;28;19913;-70
2023/08/23 03:26:20;;;;;;;;;;;;;;;28.67;38.16;98866.81;4994764;28;19918;-77
2023/08/23 03:28:46;;;;;;;;;;;;;;;28.53;38.24;98860.00;4994572;28;19922;-73
2023/08/23 03:31:11;;;;;;;;;;;;;;;28.47;38.16;98867.09;5010782;28;20060;-76
2023/08/23 03:33:36;;;;;;;;;;;;;;;28.40;38.20;98865.56;5010865;28;20004;-77
2023/08/23 03:36:01;;;;;;;;;;;;;;;28.40;38.29;98871.75;4995554;28;19924;-77
2023/08/23 03:38:27;;;;;;;;;;;;;;;28.36;38.60;98873.25;4994427;28;19914;-77
2023/08/23 03:40:52;;;;;;;;;;;;;;;28.40;38.55;98873.59;4994363;28;20011;-77
2023/08/23 03:43:18;;;;;;;;;;;;;;;28.54;38.16;98871.53;4995653;28;19936;-78
2023/08/23 03:45:47;;;;;;;;;;;;;;;28.68;38.04;98875.66;4994550;28;20021;-77
2023/08/23 03:48:12;;;;;;;;;;;;;;;28.88;37.38;98878.84;5010535;28;19969;-77
2023/08/23 03:50:38;;;;;;;;;;;;;;;29.14;36.93;98873.22;4994524;28;19913;-77
2023/08/23 03:53:03;;;;;;;;;;;;;;;29.33;36.94;98876.63;4994196;28;19971;-77
2023/08/23 03:55:28;;;;;;;;;;;;;;;29.59;36.35;98878.81;4994182;28;20282;-78
2023/08/23 03:57:54;;;;;;;;;;;;;;;29.85;35.69;98875.81;5010570;28;19914;-77
2023/08/23 04:00:19;;;;;;;;;;;;;;;30.12;35.35;98884.13;4995507;28;20000;-78
2023/08/23 04:02:45;;;;;;;;;;;;;;;30.42;35.13;98875.00;4994210;28;19971;-77
2023/08/23 04:05:11;;;;;;;;;;;;;;;30.70;34.28;98874.09;4994062;28;19960;-77
2023/08/23 04:07:37;;;;;;;;;;;;;;;31.17;33.53;98868.38;4995206;28;19913;-77
2023/08/23 04:10:02;;;;;;;;;;;;;;;31.53;32.74;98873.41;4993840;28;19936;-77
2023/08/23 04:12:27;;;;;;;;;;;;;;;31.93;32.31;98873.06;4993329;28;19917;-77
2023/08/23 04:14:52;;;;;;;;;;;;;;;32.36;31.97;98873.25;5010752;28;19924;-78
2023/08/23 04:17:18;;;;;;;;;;;;;;;32.84;31.57;98875.28;4993733;28;19969;-77
2023/08/23 04:19:43;;;;;;;;;;;;;;;33.27;30.34;98876.94;4993964;28;20063;-77
2023/08/23 04:22:08;;;;;;;;;;;;;;;33.73;29.81;98873.59;4993854;28;19914;-77
2023/08/23 04:24:34;;;;;;;;;;;;;;;34.17;29.32;98881.28;4995434;28;20008;-77
2023/08/23 04:26:59;;;;;;;;;;;;;;;34.63;29.04;98879.72;4993868;28;19914;-78
2023/08/23 04:29:24;;;;;;;;;;;;;;;35.08;27.76;98883.47;4994746;28;19925;-77
2023/08/23 04:31:50;;;;;;;;;;;;;;;35.52;27.26;98877.41;5010679;28;19914;-77
2023/08/23 04:34:15;;;;;;;;;;;;;;;36.04;27.00;98886.09;4993534;28;20016;-73
2023/08/23 04:36:40;;;;;;;;;;;;;;;36.87;25.85;98878.97;4995294;28;19917;-85
2023/08/23 04:39:06;;;;;;;;;;;;;;;37.70;24.62;98887.06;4998544;28;19996;-87
2023/08/23 04:41:31;;;;;;;;;;;;;;;38.35;23.96;98886.41;4995004;28;20363;-87
2023/08/23 04:43:56;;;;;;;;;;;;;;;38.99;23.06;98888.59;4993363;28;19980;-86
2023/08/23 04:46:21;;;;;;;;;;;;;;;39.57;22.22;98886.41;4993570;28;19960;-84
2023/08/23 04:48:47;;;;;;;;;;;;;;;40.11;21.72;98884.69;4993835;28;20430;-82
2023/08/23 04:51:12;;;;;;;;;;;;;;;40.66;21.52;98875.44;4993226;28;20353;-78
2023/08/23 04:53:38;;;;;;;;;;;;;;;41.10;21.12;98885.78;4993239;28;19967;-82
2023/08/23 04:56:03;;;;;;;;;;;;;;;41.61;20.15;98880.78;4992988;28;19914;-80
2023/08/23 04:58:31;;;;;;;;;;;;;;;42.04;19.99;98885.53;4993676;28;20330;-81
2023/08/23 05:01:04;;;;;;;;;;;;;;;42.46;19.74;98881.16;4977318;28;19957;-77
2023/08/23 05:03:30;;;;;;;;;;;;;;;42.85;19.15;98881.22;4993963;28;20337;-80
2023/08/23 05:05:55;;;;;;;;;;;;;;;43.31;19.05;98885.06;4992936;28;20410;-80
2023/08/23 05:08:20;;;;;;;;;;;;;;;43.61;18.57;98885.09;4976677;28;19960;-77
2023/08/23 05:10:50;;;;;;;;;;;;;;;43.99;18.21;98884.16;4993323;28;20400;-81
2023/08/23 05:13:15;;;;;;;;;;;;;;;44.23;18.16;98878.03;4993761;28;19979;-82
2023/08/23 05:15:41;;;;;;;;;;;;;;;44.64;17.51;98882.97;4992983;28;20005;-81
2023/08/23 05:18:06;;;;;;;;;;;;;;;44.84;17.02;98878.53;4993650;28;19917;-81
2023/08/23 05:20:31;;;;;;;;;;;;;;;45.15;16.60;98878.78;5008587;28;20024;-81
2023/08/23 05:22:57;;;;;;;;;;;;;;;45.40;16.34;98884.28;5008569;28;19961;-81
2023/08/23 05:25:22;;;;;;;;;;;;;;;45.78;16.42;98877.56;5009228;28;20303;-82
2023/08/23 05:27:47;;;;;;;;;;;;;;;46.00;16.21;98879.00;5009376;28;19914;-80
2023/08/23 05:30:12;;;;;;;;;;;;;;;46.26;15.71;98882.47;4994085;28;20419;-82
2023/08/23 05:32:38;;;;;;;;;;;;;;;46.31;15.71;98882.25;5009387;28;20336;-82
2023/08/23 05:35:03;;;;;;;;;;;;;;;46.46;15.87;98878.69;5008743;28;19914;-82
2023/08/23 05:37:29;;;;;;;;;;;;;;;46.78;15.47;98877.94;5008568;28;19914;-82
2023/08/23 05:39:54;;;;;;;;;;;;;;;46.94;15.24;98882.34;5008772;28;20313;-83
2023/08/23 05:42:19;;;;;;;;;;;;;;;47.07;15.23;98874.75;5008324;28;19914;-81
2023/08/23 05:44:44;;;;;;;;;;;;;;;47.19;15.54;98878.56;5009261;28;19913;-83
2023/08/23 05:47:10;;;;;;;;;;;;;;;47.36;14.94;98885.69;5008753;28;19929;-81
2023/08/23 05:49:35;;;;;;;;;;;;;;;47.43;15.04;98880.31;5008241;28;19914;-82
2023/08/23 05:52:00;;;;;;;;;;;;;;;47.67;14.63;98887.59;5007883;28;19917;-83
2023/08/23 05:54:26;;;;;;;;;;;;;;;47.79;14.98;98881.94;4992353;28;19924;-83
2023/08/23 05:56:51;;;;;;;;;;;;;;;47.85;14.36;98882.44;4992512;28;19913;-81
2023/08/23 05:59:16;;;;;;;;;;;;;;;47.88;14.37;98886.44;4992625;28;20296;-81
2023/08/23 06:01:42;;;;;;;;;;;;;;;47.83;14.54;98882.00;4993412;28;19914;-83
2023/08/23 06:04:07;;;;;;;;;;;;;;;47.94;14.16;98893.28;4993393;28;20385;-81
2023/08/23 06:06:33;;;;;;;;;;;;;;;48.01;14.35;98883.16;4976387;28;19917;-83
2023/08/23 06:08:59;;;;;;;;;;;;;;;48.01;14.00;98882.34;4976007;28;19964;-83
2023/08/23 06:11:24;;;;;;;;;;;;;;;48.13;14.33;98884.19;4976079;28;20012;-84
2023/08/23 06:13:50;;;;;;;;;;;;;;;48.08;13.93;98881.72;4991733;28;20002;-82
2023/08/23 06:16:15;;;;;;;;;;;;;;;48.23;13.87;98889.13;4991873;28;19972;-80
2023/08/23 06:18:40;;;;;;;;;;;;;;;48.15;14.24;98893.72;4976283;28;20008;-82
2023/08/23 06:21:06;;;;;;;;;;;;;;;48.21;13.73;98891.47;4992343;28;19992;-82
2023/08/23 06:23:31;;;;;;;;;;;;;;;48.28;13.90;98896.31;4975861;28;19920;-82
2023/08/23 06:25:59;;;;;;;;;;;;;;;48.28;14.25;98899.88;4975757;28;19914;-82
2023/08/23 06:28:25;;;;;;;;;;;;;;;48.28;14.22;98888.03;4972112;28;19925;-81
2023/08/23 06:30:50;;;;;;;;;;;;;;;48.27;14.20;98895.53;4988773;28;19918;-81
2023/08/23 06:33:15;;;;;;;;;;;;;;;48.31;14.25;98887.28;4988468;28;20056;-82
2023/08/23 06:35:40;;;;;;;;;;;;;;;48.35;13.96;98891.72;4989131;28;19924;-82
2023/08/23 06:38:06;;;;;;;;;;;;;;;48.33;14.25;98885.78;4988458;28;19914;-82
2023/08/23 06:40:31;;;;;;;;;;;;;;;48.35;14.13;98891.72;4988281;28;20362;-81
2023/08/23 06:42:57;;;;;;;;;;;;;;;48.34;13.75;98889.31;4988607;28;19914;-82
2023/08/23 06:45:22;;;;;;;;;;;;;;;48.36;14.20;98887.81;4988569;28;19936;-82
2023/08/23 06:47:49;;;;;;;;;;;;;;;48.41;13.92;98891.44;4995806;28;19957;-81
2023/08/23 06:50:14;;;;;;;;;;;;;;;48.43;13.73;98891.91;4990841;28;20392;-83
2023/08/23 06:52:39;;;;;;;;;;;;;;;48.40;13.79;98892.59;4989288;28;19914;-82
2023/08/23 06:55:05;;;;;;;;;;;;;;;48.37;14.09;98891.38;4988359;28;19949;-83
2023/08/23 06:57:31;;;;;;;;;;;;;;;48.41;14.08;98894.22;4988277;28;19918;-81
2023/08/23 06:59:57;;;;;;;;;;;;;;;48.41;13.99;98895.03;4988273;28;20399;-82
2023/08/23 07:02:22;;;;;;;;;;;;;;;48.43;14.01;98894.66;4991471;28;20008;-82
2023/08/23 07:04:48;;;;;;;;;;;;;;;48.45;13.98;98892.31;4992061;28;20297;-82
2023/08/23 07:07:14;;;;;;;;;;;;;;;48.48;13.99;98888.81;4991765;28;19961;-82
2023/08/23 07:09:39;;;;;;;;;;;;;;;48.47;13.67;98889.97;4991991;28;19949;-83
2023/08/23 07:12:05;;;;;;;;;;;;;;;48.50;13.86;98887.28;4992084;28;19925;-81
2023/08/23 07:14:30;;;;;;;;;;;;;;;48.49;13.58;98890.41;4991783;28;19922;-82
2023/08/23 07:16:55;;;;;;;;;;;;;;;48.54;13.54;98885.38;4991655;28;19914;-82
2023/08/23 07:19:21;;;;;;;;;;;;;;;48.60;13.38;98890.59;4976866;28;20396;-81
2023/08/23 07:21:46;;;;;;;;;;;;;;;48.58;13.76;98881.88;4991947;28;20064;-81
2023/08/23 07:24:11;;;;;;;;;;;;;;;48.61;13.57;98881.94;4991682;28;19920;-83
2023/08/23 07:26:37;;;;;;;;;;;;;;;48.62;13.25;98883.53;4992652;28;20001;-82
2023/08/23 07:29:02;;;;;;;;;;;;;;;48.58;13.32;98877.13;4991542;28;19940;-83
2023/08/23 07:31:27;;;;;;;;;;;;;;;48.57;13.48;98875.53;4976540;28;19914;-83
2023/08/23 07:33:53;;;;;;;;;;;;;;;48.55;13.59;98883.41;4991708;28;19917;-82
2023/08/23 07:36:18;;;;;;;;;;;;;;;48.51;13.52;98875.03;4991584;28;19921;-82
2023/08/23 07:38:43;;;;;;;;;;;;;;;48.47;13.83;98876.13;4991427;28;20377;-83
2023/08/23 07:41:09;;;;;;;;;;;;;;;48.48;13.75;98877.75;4991816;28;20000;-83
2023/08/23 07:43:34;;;;;;;;;;;;;;;48.52;13.79;98881.38;4991260;28;20362;-84
2023/08/23 07:46:00;;;;;;;;;;;;;;;48.55;13.50;98875.09;4991432;28;20362;-87
2023/08/23 07:48:25;;;;;;;;;;;;;;;48.56;13.54;98882.25;4991374;28;19945;-84
2023/08/23 07:50:51;;;;;;;;;;;;;;;48.58;13.41;98884.63;4991261;28;19918;-85
2023/08/23 07:53:16;;;;;;;;;;;;;;;48.57;13.03;98874.72;4991156;28;19921;-84
2023/08/23 07:55:41;;;;;;;;;;;;;;;48.55;13.07;98880.63;4991120;28;19918;-83
2023/08/23 07:58:08;;;;;;;;;;;;;;;48.53;13.06;98875.47;4992516;28;19936;-82
2023/08/23 08:00:34;;;;;;;;;;;;;;;48.45;13.30;98868.19;4991191;28;19914;-84
2023/08/23 08:02:59;;;;;;;;;;;;;;;48.44;13.06;98863.84;4991226;28;20387;-84
2023/08/23 08:05:24;;;;;;;;;;;;;;;48.44;13.52;98857.50;4991511;28;19989;-85
2023/08/23 08:07:50;;;;;;;;;;;;;;;48.47;13.42;98856.75;4991043;28;19921;-83
2023/08/23 08:10:15;;;;;;;;;;;;;;;48.48;13.23;98855.59;4990868;28;19921;-83
2023/08/23 08:12:40;;;;;;;;;;;;;;;48.48;13.29;98863.91;4990462;28;19926;-84
2023/08/23 08:15:07;;;;;;;;;;;;;;;48.46;13.18;98847.66;4975691;28;19914;-85
2023/08/23 08:17:33;;;;;;;;;;;;;;;48.46;12.99;98847.66;5002523;28;19921;-85
2023/08/23 08:19:59;;;;;;;;;;;;;;;48.44;13.07;98850.00;4993873;28;20293;-84
2023/08/23 08:22:24;;;;;;;;;;;;;;;48.42;13.13;98857.06;5010173;28;19968;-82
2023/08/23 08:24:50;;;;;;;;;;;;;;;48.39;12.87;98855.81;5010140;28;19918;-84
2023/08/23 08:27:15;;;;;;;;;;;;;;;48.34;12.62;98862.44;4994341;28;20284;-85
2023/08/23 08:29:40;;;;;;;;;;;;;;;48.26;12.64;98871.00;4993717;28;20503;-83
2023/08/23 08:32:06;;;;;;;;;;;;;;;48.13;12.66;98871.16;5010555;28;19913;-83
2023/08/23 08:34:31;;;;;;;;;;;;;;;48.07;12.88;98864.31;4994030;28;19917;-84
2023/08/23 08:36:57;;;;;;;;;;;;;;;47.98;13.12;98872.00;5010279;28;20391;-84
2023/08/23 08:39:22;;;;;;;;;;;;;;;47.91;12.80;98869.91;4993824;28;19921;-85
2023/08/23 08:41:48;;;;;;;;;;;;;;;47.90;12.85;98865.53;4994084;28;19953;-86
2023/08/23 08:44:13;;;;;;;;;;;;;;;47.84;12.96;98864.22;4993466;28;19971;-86
2023/08/23 08:46:39;;;;;;;;;;;;;;;47.81;13.29;98860.22;5010323;28;19965;-86
2023/08/23 08:49:04;;;;;;;;;;;;;;;47.74;13.51;98856.50;4993470;28;19914;-82
2023/08/23 08:51:29;;;;;;;;;;;;;;;47.72;13.21;98850.56;4993769;28;20008;-82
2023/08/23 08:53:55;;;;;;;;;;;;;;;47.64;13.26;98855.09;4993118;28;20443;-86
2023/08/23 08:56:20;;;;;;;;;;;;;;;47.63;13.48;98854.28;4993836;28;19913;-84
2023/08/23 08:58:46;;;;;;;;;;;;;;;47.57;13.49;98847.47;4993277;28;19956;-82
2023/08/23 09:01:11;;;;;;;;;;;;;;;47.50;13.37;98849.28;4993232;28;19918;-84
2023/08/23 09:03:36;;;;;;;;;;;;;;;47.46;13.34;98850.00;5009764;28;19914;-84
2023/08/23 09:06:02;;;;;;;;;;;;;;;47.47;13.58;98850.78;5009657;28;19914;-86
2023/08/23 09:08:28;;;;;;;;;;;;;;;47.41;13.87;98846.72;5009489;28;19913;-84
2023/08/23 09:10:54;;;;;;;;;;;;;;;47.33;13.65;98833.91;5009825;28;19961;-86
2023/08/23 09:13:20;;;;;;;;;;;;;;;47.16;13.74;98827.59;5008894;28;19922;-83
2023/08/23 09:15:48;;;;;;;;;;;;;;;47.13;13.78;98825.56;4993291;28;19921;-85
2023/08/23 09:18:17;;;;;;;;;;;;;;;47.06;14.12;98828.13;4993527;28;20388;-86
2023/08/23 09:20:43;;;;;;;;;;;;;;;47.00;14.06;98824.84;5009257;28;19917;-84
2023/08/23 09:23:08;;;;;;;;;;;;;;;46.92;14.04;98823.91;4993685;28;19921;-85
2023/08/23 09:25:33;;;;;;;;;;;;;;;46.90;14.06;98822.63;5009991;28;19914;-86
2023/08/23 09:27:59;;;;;;;;;;;;;;;46.70;13.96;98811.50;5009736;28;19921;-85
2023/08/23 09:30:24;;;;;;;;;;;;;;;46.42;13.86;98817.09;4993160;28;20336;-84
2023/08/23 09:32:49;;;;;;;;;;;;;;;46.22;13.80;98816.97;5009101;28;19937;-85
2023/08/23 09:35:15;;;;;;;;;;;;;;;45.91;14.24;98805.84;5009207;28;19921;-85
2023/08/23 09:37:43;;;;;;;;;;;;;;;45.76;14.06;98810.94;4992755;28;19914;-83
2023/08/23 09:40:21;;;;;;;;;;;;;;;45.63;14.53;98812.16;4992823;28;19943;-86
2023/08/23 09:42:46;;;;;;;;;;;;;;;45.41;14.52;98803.25;4993248;28;19913;-83
2023/08/23 09:45:16;;;;;;;;;;;;;;;45.26;14.52;98807.50;4992691;28;20451;-83
2023/08/23 09:47:44;;;;;;;;;;;;;;;45.02;14.00;98797.31;4992354;28;19924;-87
2023/08/23 09:50:10;;;;;;;;;;;;;;;44.91;14.26;98807.94;5009542;28;19914;-85
2023/08/23 09:52:35;;;;;;;;;;;;;;;44.82;14.21;98803.72;4994175;28;20340;-86
2023/08/23 09:55:04;;;;;;;;;;;;;;;44.68;14.57;98790.28;5008982;28;20403;-84
2023/08/23 09:57:29;;;;;;;;;;;;;;;44.57;14.68;98790.72;4992548;28;19913;-86
2023/08/23 09:59:55;;;;;;;;;;;;;;;44.50;14.81;98790.47;4993811;28;19914;-85
2023/08/23 10:02:20;;;;;;;;;;;;;;;44.41;15.04;98784.28;4993768;28;20396;-85
2023/08/23 10:04:45;;;;;;;;;;;;;;;44.36;15.03;98792.75;5008719;28;20336;-84
2023/08/23 10:07:11;;;;;;;;;;;;;;;44.22;15.04;98773.84;5008930;28;19972;-85
2023/08/23 10:09:36;;;;;;;;;;;;;;;44.15;15.12;98776.28;4993261;28;20380;-82
2023/08/23 10:12:02;;;;;;;;;;;;;;;44.05;15.24;98772.81;4991972;28;20348;-83
2023/08/23 10:14:28;;;;;;;;;;;;;;;43.97;15.56;98759.97;4992034;28;19918;-85
2023/08/23 10:16:53;;;;;;;;;;;;;;;43.91;15.51;98756.63;4991905;28;19964;-82
2023/08/23 10:19:19;;;;;;;;;;;;;;;43.93;15.56;98767.28;5008579;28;19913;-83
2023/08/23 10:21:44;;;;;;;;;;;;;;;43.87;15.61;98763.97;5009026;28;19972;-84
2023/08/23 10:24:10;;;;;;;;;;;;;;;43.82;15.67;98757.88;4992180;28;19913;-85
2023/08/23 10:26:45;;;;;;;;;;;;;;;43.75;15.73;98763.88;5008820;28;19921;-82
2023/08/23 10:29:11;;;;;;;;;;;;;;;43.64;15.60;98763.50;4992012;28;19928;-85
2023/08/23 10:31:36;;;;;;;;;;;;;;;43.56;15.52;98747.91;4992367;28;19947;-84
2023/08/23 10:34:01;;;;;;;;;;;;;;;43.49;15.51;98753.94;4992031;28;19971;-85
2023/08/23 10:36:27;;;;;;;;;;;;;;;43.43;15.59;98757.19;5012593;28;19963;-83
2023/08/23 10:38:56;;;;;;;;;;;;;;;43.14;15.89;98740.44;4996000;28;20373;-85
2023/08/23 10:41:22;;;;;;;;;;;;;;;42.99;16.11;98760.25;4996084;28;19918;-84
2023/08/23 10:43:48;;;;;;;;;;;;;;;42.77;15.99;98745.63;4997477;28;20000;-86
2023/08/23 10:46:15;;;;;;;;;;;;;;;42.65;16.07;98740.88;4996910;28;20270;-82
2023/08/23 10:48:40;;;;;;;;;;;;;;;42.55;16.41;98743.97;5012771;28;19920;-86
2023/08/23 10:51:06;;;;;;;;;;;;;;;42.50;16.36;98749.63;4995979;28;19914;-84
2023/08/23 10:53:31;;;;;;;;;;;;;;;42.49;16.50;98748.00;5013685;28;19917;-84
2023/08/23 10:55:59;;;;;;;;;;;;;;;42.43;16.41;98752.06;4995810;28;19920;-85
2023/08/23 10:58:25;;;;;;;;;;;;;;;42.39;16.25;98749.19;4995684;28;19914;-86
2023/08/23 11:00:53;;;;;;;;;;;;;;;42.39;16.57;98740.94;4996585;28;19921;-86
2023/08/23 11:03:19;;;;;;;;;;;;;;;42.33;16.70;98730.50;4997210;28;19913;-82
2023/08/23 11:05:44;;;;;;;;;;;;;;;42.30;16.80;98720.97;4995618;28;19914;-86
2023/08/23 11:08:10;;;;;;;;;;;;;;;42.23;16.81;98726.97;4995436;28;19913;-84
2023/08/23 11:10:36;;;;;;;;;;;;;;;42.26;16.82;98726.31;4995500;28;20012;-86
2023/08/23 11:13:01;;;;;;;;;;;;;;;42.21;17.03;98731.16;5011564;28;19926;-83
2023/08/23 11:15:27;;;;;;;;;;;;;;;42.03;16.84;98730.38;4995299;28;19913;-83
2023/08/23 11:17:52;;;;;;;;;;;;;;;41.86;17.06;98715.59;5012042;28;19914;-85
2023/08/23 11:20:17;;;;;;;;;;;;;;;41.72;17.16;98715.78;5011891;28;19914;-83
2023/08/23 11:22:43;;;;;;;;;;;;;;;41.57;17.48;98716.25;4995570;28;19909;-85
2023/08/23 11:25:08;;;;;;;;;;;;;;;41.40;17.65;98714.31;5011976;28;20000;-84
2023/08/23 11:27:33;;;;;;;;;;;;;;;41.21;17.69;98712.69;5012108;28;19910;-86
2023/08/23 11:29:59;;;;;;;;;;;;;;;41.04;18.10;98710.75;4994742;28;19914;-85
2023/08/23 11:32:24;;;;;;;;;;;;;;;40.89;18.00;98702.97;5011041;28;19909;-84
2023/08/23 11:34:49;;;;;;;;;;;;;;;40.76;18.35;98714.84;4995432;28;20357;-82
2023/08/23 11:37:15;;;;;;;;;;;;;;;40.61;18.24;98707.88;4995020;28;19937;-84
2023/08/23 11:39:40;;;;;;;;;;;;;;;40.48;18.58;98696.72;4994805;28;19918;-83
2023/08/23 11:42:06;;;;;;;;;;;;;;;40.41;18.92;98699.13;5011149;28;19972;-85
2023/08/23 11:44:31;;;;;;;;;;;;;;;40.36;18.88;98698.41;5011166;28;19918;-84
2023/08/23 11:46:57;;;;;;;;;;;;;;;40.32;18.93;98700.97;4993982;28;19914;-84
2023/08/23 11:49:22;;;;;;;;;;;;;;;40.29;19.15;98696.94;4994614;28;19921;-86
2023/08/23 11:51:50;;;;;;;;;;;;;;;40.28;19.16;98691.78;4994458;28;19921;-85
2023/08/23 11:54:16;;;;;;;;;;;;;;;40.26;18.91;98692.09;4994864;28;20364;-85
2023/08/23 11:56:43;;;;;;;;;;;;;;;40.25;18.95;98689.69;4994490;28;19917;-85
2023/08/23 11:59:09;;;;;;;;;;;;;;;40.23;18.90;98686.47;5010741;28;19914;-83
2023/08/23 12:01:34;;;;;;;;;;;;;;;40.19;18.86;98689.03;4994626;28;19972;-83
2023/08/23 12:04:00;;;;;;;;;;;;;;;40.17;18.85;98685.81;5011119;28;20372;-84
2023/08/23 12:06:26;;;;;;;;;;;;;;;40.25;18.75;98684.22;5010429;28;19982;-83
2023/08/23 12:08:51;;;;;;;;;;;;;;;40.33;19.01;98681.53;4994600;28;20294;-85
2023/08/23 12:11:17;;;;;;;;;;;;;;;40.37;19.26;98689.09;4994477;28;19933;-84
2023/08/23 12:13:42;;;;;;;;;;;;;;;40.36;18.93;98682.00;4993482;28;20020;-86
2023/08/23 12:16:07;;;;;;;;;;;;;;;40.44;19.42;98679.34;4995143;28;20017;-88
2023/08/23 12:18:33;;;;;;;;;;;;;;;40.48;19.04;98674.84;4994240;28;19945;-85
2023/08/23 12:20:58;;;;;;;;;;;;;;;40.49;18.78;98670.19;4978030;28;20395;-85
2023/08/23 12:23:24;;;;;;;;;;;;;;;40.48;18.48;98669.38;4995198;28;19914;-86
2023/08/23 12:25:49;;;;;;;;;;;;;;;40.49;18.17;98671.00;4994032;28;20008;-83
2023/08/23 12:28:14;;;;;;;;;;;;;;;40.47;18.03;98670.50;4977864;28;20388;-85
2023/08/23 12:30:40;;;;;;;;;;;;;;;40.45;17.93;98669.22;4977877;28;20297;-83
2023/08/23 12:33:05;;;;;;;;;;;;;;;40.40;17.90;98672.06;4993934;28;19982;-87
2023/08/23 12:35:31;;;;;;;;;;;;;;;40.27;17.94;98677.31;4994232;28;20092;-84
2023/08/23 12:37:56;;;;;;;;;;;;;;;40.15;17.74;98666.16;4993928;28;20359;-83
2023/08/23 12:40:22;;;;;;;;;;;;;;;40.04;17.56;98671.09;4978022;28;20341;-86